sensor_id;sensor_type;location;lat;lon;timestamp;pressure;altitude;pressure_sealevel;temperature
71640;BMP280;60912;48.968;10.124;2022-08-24T00:02:13;96907.00;;;17.01
71640;BMP280;60912;48.968;10.124;2022-08-24T00:04:38;96916.47;;;16.79
71640;BMP280;60912;48.968;10.124;2022-08-24T00:07:05;96908.66;;;16.68
71640;BMP280;60912;48.968;10.124;2022-08-24T00:09:31;96911.50;;;16.78
71640;BMP280;60912;48.968;10.124;2022-08-24T00:11:57;96908.16;;;16.89
71640;BMP280;60912;48.968;10.124;2022-08-24T00:14:23;96909.91;;;16.94
71640;BMP280;60912;48.968;10.124;2022-08-24T00:16:49;96907.28;;;16.96
71640;BMP280;60912;48.968;10.124;2022-08-24T00:19:14;96904.00;;;16.80
71640;BMP280;60912;48.968;10.124;2022-08-24T00:21:40;96913.97;;;16.74
71640;BMP280;60912;48.968;10.124;2022-08-24T00:24:06;96915.44;;;16.84
71640;BMP280;60912;48.968;10.124;2022-08-24T00:26:32;96909.63;;;16.90
71640;BMP280;60912;48.968;10.124;2022-08-24T00:28:57;96910.66;;;16.94
71640;BMP280;60912;48.968;10.124;2022-08-24T00:31:24;96914.31;;;16.97
71640;BMP280;60912;48.968;10.124;2022-08-24T00:33:49;96904.97;;;17.02
71640;BMP280;60912;48.968;10.124;2022-08-24T00:36:15;96908.69;;;17.14
71640;BMP280;60912;48.968;10.124;2022-08-24T00:38:40;96912.03;;;17.22
71640;BMP280;60912;48.968;10.124;2022-08-24T00:41:06;96905.75;;;17.22
71640;BMP280;60912;48.968;10.124;2022-08-24T00:43:32;96906.94;;;17.28
71640;BMP280;60912;48.968;10.124;2022-08-24T00:46:12;96909.00;;;17.28
71640;BMP280;60912;48.968;10.124;2022-08-24T00:48:42;96906.66;;;17.24
71640;BMP280;60912;48.968;10.124;2022-08-24T00:51:23;96905.41;;;16.98
71640;BMP280;60912;48.968;10.124;2022-08-24T00:54:17;96901.44;;;16.92
71640;BMP280;60912;48.968;10.124;2022-08-24T00:56:50;96905.91;;;16.78
71640;BMP280;60912;48.968;10.124;2022-08-24T00:59:21;96897.09;;;16.45
71640;BMP280;60912;48.968;10.124;2022-08-24T01:01:48;96901.94;;;16.44
71640;BMP280;60912;48.968;10.124;2022-08-24T01:04:21;96897.84;;;16.45
71640;BMP280;60912;48.968;10.124;2022-08-24T01:06:47;96897.94;;;16.38
71640;BMP280;60912;48.968;10.124;2022-08-24T01:09:14;96897.81;;;16.36
71640;BMP280;60912;48.968;10.124;2022-08-24T01:11:39;96895.91;;;16.38
71640;BMP280;60912;48.968;10.124;2022-08-24T01:14:06;96894.56;;;16.30
71640;BMP280;60912;48.968;10.124;2022-08-24T01:16:33;96899.88;;;16.18
71640;BMP280;60912;48.968;10.124;2022-08-24T01:22:09;96896.00;;;16.04
71640;BMP280;60912;48.968;10.124;2022-08-24T01:24:35;96895.25;;;16.03
71640;BMP280;60912;48.968;10.124;2022-08-24T01:27:01;96898.38;;;15.90
71640;BMP280;60912;48.968;10.124;2022-08-24T01:29:28;96895.69;;;15.83
71640;BMP280;60912;48.968;10.124;2022-08-24T01:31:56;96894.69;;;15.88
71640;BMP280;60912;48.968;10.124;2022-08-24T01:34:22;96898.28;;;15.98
71640;BMP280;60912;48.968;10.124;2022-08-24T01:36:53;96895.81;;;15.85
71640;BMP280;60912;48.968;10.124;2022-08-24T01:41:55;96895.75;;;15.75
71640;BMP280;60912;48.968;10.124;2022-08-24T01:44:23;96891.28;;;15.80
71640;BMP280;60912;48.968;10.124;2022-08-24T01:46:51;96891.59;;;15.84
71640;BMP280;60912;48.968;10.124;2022-08-24T01:49:18;96895.50;;;15.98
71640;BMP280;60912;48.968;10.124;2022-08-24T01:51:43;96895.50;;;16.15
71640;BMP280;60912;48.968;10.124;2022-08-24T01:54:11;96898.41;;;16.17
71640;BMP280;60912;48.968;10.124;2022-08-24T01:56:37;96889.94;;;16.15
71640;BMP280;60912;48.968;10.124;2022-08-24T01:59:02;96894.94;;;16.16
71640;BMP280;60912;48.968;10.124;2022-08-24T02:01:31;96894.53;;;16.03
71640;BMP280;60912;48.968;10.124;2022-08-24T02:03:59;96891.97;;;15.80
71640;BMP280;60912;48.968;10.124;2022-08-24T02:06:26;96901.16;;;15.73
71640;BMP280;60912;48.968;10.124;2022-08-24T02:08:51;96898.16;;;15.79
71640;BMP280;60912;48.968;10.124;2022-08-24T02:11:17;96894.38;;;15.84
71640;BMP280;60912;48.968;10.124;2022-08-24T02:13:42;96898.88;;;15.79
71640;BMP280;60912;48.968;10.124;2022-08-24T02:16:08;96899.47;;;15.78
71640;BMP280;60912;48.968;10.124;2022-08-24T02:18:34;96899.09;;;15.91
71640;BMP280;60912;48.968;10.124;2022-08-24T02:21:01;96895.56;;;16.07
71640;BMP280;60912;48.968;10.124;2022-08-24T02:23:27;96895.97;;;16.21
71640;BMP280;60912;48.968;10.124;2022-08-24T02:25:54;96895.53;;;16.25
71640;BMP280;60912;48.968;10.124;2022-08-24T02:28:21;96900.88;;;15.96
71640;BMP280;60912;48.968;10.124;2022-08-24T02:30:47;96894.06;;;15.80
71640;BMP280;60912;48.968;10.124;2022-08-24T02:33:13;96895.44;;;15.88
71640;BMP280;60912;48.968;10.124;2022-08-24T02:35:38;96891.41;;;15.99
71640;BMP280;60912;48.968;10.124;2022-08-24T02:38:05;96893.03;;;16.02
71640;BMP280;60912;48.968;10.124;2022-08-24T02:40:30;96890.00;;;16.07
71640;BMP280;60912;48.968;10.124;2022-08-24T02:42:57;96892.53;;;16.13
71640;BMP280;60912;48.968;10.124;2022-08-24T02:45:22;96892.25;;;16.18
71640;BMP280;60912;48.968;10.124;2022-08-24T02:47:48;96886.13;;;16.20
71640;BMP280;60912;48.968;10.124;2022-08-24T02:50:15;96888.75;;;16.18
71640;BMP280;60912;48.968;10.124;2022-08-24T02:52:42;96890.22;;;16.19
71640;BMP280;60912;48.968;10.124;2022-08-24T02:55:11;96893.75;;;16.19
71640;BMP280;60912;48.968;10.124;2022-08-24T02:57:37;96893.19;;;16.21
71640;BMP280;60912;48.968;10.124;2022-08-24T03:00:06;96891.97;;;16.14
71640;BMP280;60912;48.968;10.124;2022-08-24T03:02:33;96893.50;;;16.08
71640;BMP280;60912;48.968;10.124;2022-08-24T03:04:58;96894.81;;;16.07
71640;BMP280;60912;48.968;10.124;2022-08-24T03:07:24;96888.31;;;15.95
71640;BMP280;60912;48.968;10.124;2022-08-24T03:09:49;96891.56;;;16.01
71640;BMP280;60912;48.968;10.124;2022-08-24T03:12:14;96895.81;;;16.02
71640;BMP280;60912;48.968;10.124;2022-08-24T03:14:40;96896.00;;;16.04
71640;BMP280;60912;48.968;10.124;2022-08-24T03:17:05;96896.97;;;15.99
71640;BMP280;60912;48.968;10.124;2022-08-24T03:19:31;96894.63;;;15.78
71640;BMP280;60912;48.968;10.124;2022-08-24T03:21:57;96885.38;;;15.58
71640;BMP280;60912;48.968;10.124;2022-08-24T03:24:22;96888.34;;;15.60
71640;BMP280;60912;48.968;10.124;2022-08-24T03:26:48;96885.72;;;15.62
71640;BMP280;60912;48.968;10.124;2022-08-24T03:29:14;96887.78;;;15.62
71640;BMP280;60912;48.968;10.124;2022-08-24T03:31:40;96887.19;;;15.63
71640;BMP280;60912;48.968;10.124;2022-08-24T03:34:05;96881.38;;;15.52
71640;BMP280;60912;48.968;10.124;2022-08-24T03:36:30;96884.00;;;15.50
71640;BMP280;60912;48.968;10.124;2022-08-24T03:38:56;96887.66;;;15.52
71640;BMP280;60912;48.968;10.124;2022-08-24T03:41:21;96879.69;;;15.39
71640;BMP280;60912;48.968;10.124;2022-08-24T03:43:47;96882.00;;;15.26
71640;BMP280;60912;48.968;10.124;2022-08-24T03:46:18;96886.88;;;15.17
71640;BMP280;60912;48.968;10.124;2022-08-24T03:48:45;96885.03;;;14.95
71640;BMP280;60912;48.968;10.124;2022-08-24T03:51:13;96882.38;;;14.80
71640;BMP280;60912;48.968;10.124;2022-08-24T03:53:40;96884.19;;;14.85
71640;BMP280;60912;48.968;10.124;2022-08-24T03:56:06;96888.63;;;14.88
71640;BMP280;60912;48.968;10.124;2022-08-24T03:58:33;96886.06;;;14.83
71640;BMP280;60912;48.968;10.124;2022-08-24T04:01:00;96893.69;;;14.74
71640;BMP280;60912;48.968;10.124;2022-08-24T04:03:25;96895.41;;;14.70
71640;BMP280;60912;48.968;10.124;2022-08-24T04:05:52;96893.38;;;14.70
71640;BMP280;60912;48.968;10.124;2022-08-24T04:08:17;96884.34;;;14.62
71640;BMP280;60912;48.968;10.124;2022-08-24T04:10:44;96898.84;;;14.53
71640;BMP280;60912;48.968;10.124;2022-08-24T04:13:10;96886.22;;;14.60
71640;BMP280;60912;48.968;10.124;2022-08-24T04:15:39;96891.69;;;14.67
71640;BMP280;60912;48.968;10.124;2022-08-24T04:18:04;96883.97;;;14.66
71640;BMP280;60912;48.968;10.124;2022-08-24T04:20:30;96891.88;;;14.69
71640;BMP280;60912;48.968;10.124;2022-08-24T04:22:55;96885.66;;;14.61
71640;BMP280;60912;48.968;10.124;2022-08-24T04:25:21;96891.88;;;14.69
71640;BMP280;60912;48.968;10.124;2022-08-24T04:27:46;96893.19;;;14.68
71640;BMP280;60912;48.968;10.124;2022-08-24T04:30:12;96895.22;;;14.68
71640;BMP280;60912;48.968;10.124;2022-08-24T04:32:38;96892.44;;;14.68
71640;BMP280;60912;48.968;10.124;2022-08-24T04:35:04;96889.63;;;14.76
71640;BMP280;60912;48.968;10.124;2022-08-24T04:37:29;96894.66;;;14.69
71640;BMP280;60912;48.968;10.124;2022-08-24T04:39:55;96891.97;;;14.54
71640;BMP280;60912;48.968;10.124;2022-08-24T04:42:20;96895.41;;;14.70
71640;BMP280;60912;48.968;10.124;2022-08-24T04:44:45;96898.22;;;14.62
71640;BMP280;60912;48.968;10.124;2022-08-24T04:47:11;96911.53;;;14.64
71640;BMP280;60912;48.968;10.124;2022-08-24T04:49:37;96908.25;;;14.83
71640;BMP280;60912;48.968;10.124;2022-08-24T04:52:04;96913.91;;;15.42
71640;BMP280;60912;48.968;10.124;2022-08-24T04:54:30;96912.63;;;16.75
71640;BMP280;60912;48.968;10.124;2022-08-24T04:56:56;96918.25;;;18.66
71640;BMP280;60912;48.968;10.124;2022-08-24T04:59:21;96911.22;;;21.07
71640;BMP280;60912;48.968;10.124;2022-08-24T05:01:47;96914.50;;;22.55
71640;BMP280;60912;48.968;10.124;2022-08-24T05:04:12;96912.75;;;24.03
71640;BMP280;60912;48.968;10.124;2022-08-24T05:06:39;96911.94;;;24.97
71640;BMP280;60912;48.968;10.124;2022-08-24T05:09:05;96917.59;;;26.81
71640;BMP280;60912;48.968;10.124;2022-08-24T05:11:31;96914.44;;;27.34
71640;BMP280;60912;48.968;10.124;2022-08-24T05:13:57;96917.88;;;27.99
71640;BMP280;60912;48.968;10.124;2022-08-24T05:16:23;96920.91;;;28.57
71640;BMP280;60912;48.968;10.124;2022-08-24T05:18:49;96922.72;;;28.21
71640;BMP280;60912;48.968;10.124;2022-08-24T05:21:18;96925.13;;;28.56
71640;BMP280;60912;48.968;10.124;2022-08-24T05:23:44;96927.00;;;29.92
71640;BMP280;60912;48.968;10.124;2022-08-24T05:26:18;96925.44;;;30.96
71640;BMP280;60912;48.968;10.124;2022-08-24T05:28:45;96934.69;;;31.92
71640;BMP280;60912;48.968;10.124;2022-08-24T05:31:14;96925.00;;;32.17
71640;BMP280;60912;48.968;10.124;2022-08-24T05:33:40;96926.44;;;34.03
71640;BMP280;60912;48.968;10.124;2022-08-24T05:36:14;96925.13;;;34.82
71640;BMP280;60912;48.968;10.124;2022-08-24T05:38:40;96924.38;;;34.37
71640;BMP280;60912;48.968;10.124;2022-08-24T05:41:06;96918.63;;;35.28
71640;BMP280;60912;48.968;10.124;2022-08-24T05:43:32;96921.09;;;36.20
71640;BMP280;60912;48.968;10.124;2022-08-24T05:45:58;96919.91;;;36.84
71640;BMP280;60912;48.968;10.124;2022-08-24T05:48:23;96921.84;;;37.71
71640;BMP280;60912;48.968;10.124;2022-08-24T05:50:54;96921.97;;;38.60
71640;BMP280;60912;48.968;10.124;2022-08-24T05:53:19;96926.69;;;38.37
71640;BMP280;60912;48.968;10.124;2022-08-24T05:55:45;96928.28;;;37.12
71640;BMP280;60912;48.968;10.124;2022-08-24T05:58:11;96930.91;;;37.93
71640;BMP280;60912;48.968;10.124;2022-08-24T06:00:36;96929.47;;;37.94
71640;BMP280;60912;48.968;10.124;2022-08-24T06:03:02;96928.84;;;37.88
71640;BMP280;60912;48.968;10.124;2022-08-24T06:05:27;96936.53;;;37.47
71640;BMP280;60912;48.968;10.124;2022-08-24T06:07:53;96943.31;;;36.26
71640;BMP280;60912;48.968;10.124;2022-08-24T06:10:19;96942.09;;;35.87
71640;BMP280;60912;48.968;10.124;2022-08-24T06:12:45;96941.38;;;35.90
71640;BMP280;60912;48.968;10.124;2022-08-24T06:15:11;96944.25;;;35.86
71640;BMP280;60912;48.968;10.124;2022-08-24T06:17:37;96939.59;;;36.48
71640;BMP280;60912;48.968;10.124;2022-08-24T06:20:04;96943.63;;;35.64
71640;BMP280;60912;48.968;10.124;2022-08-24T06:22:29;96950.19;;;34.66
71640;BMP280;60912;48.968;10.124;2022-08-24T06:24:55;96953.31;;;33.49
71640;BMP280;60912;48.968;10.124;2022-08-24T06:27:39;96955.56;;;32.73
71640;BMP280;60912;48.968;10.124;2022-08-24T06:30:07;96952.84;;;32.17
71640;BMP280;60912;48.968;10.124;2022-08-24T06:32:36;96958.94;;;31.91
71640;BMP280;60912;48.968;10.124;2022-08-24T06:35:03;96950.25;;;31.83
71640;BMP280;60912;48.968;10.124;2022-08-24T06:37:28;96947.09;;;32.13
71640;BMP280;60912;48.968;10.124;2022-08-24T06:39:55;96946.69;;;31.33
71640;BMP280;60912;48.968;10.124;2022-08-24T06:42:21;96945.59;;;31.56
71640;BMP280;60912;48.968;10.124;2022-08-24T06:44:49;96952.91;;;30.78
71640;BMP280;60912;48.968;10.124;2022-08-24T06:47:14;96952.53;;;29.88
71640;BMP280;60912;48.968;10.124;2022-08-24T06:49:40;96945.16;;;29.77
71640;BMP280;60912;48.968;10.124;2022-08-24T06:52:05;96956.13;;;29.59
71640;BMP280;60912;48.968;10.124;2022-08-24T06:54:31;96957.25;;;29.77
71640;BMP280;60912;48.968;10.124;2022-08-24T06:56:57;96955.75;;;30.08
71640;BMP280;60912;48.968;10.124;2022-08-24T06:59:25;96949.47;;;30.12
71640;BMP280;60912;48.968;10.124;2022-08-24T07:01:52;96961.56;;;30.12
71640;BMP280;60912;48.968;10.124;2022-08-24T07:04:18;96967.81;;;29.73
71640;BMP280;60912;48.968;10.124;2022-08-24T07:06:44;96967.66;;;29.37
71640;BMP280;60912;48.968;10.124;2022-08-24T07:09:09;96977.63;;;28.08
71640;BMP280;60912;48.968;10.124;2022-08-24T07:11:35;96976.09;;;28.54
71640;BMP280;60912;48.968;10.124;2022-08-24T07:14:00;96967.19;;;28.89
71640;BMP280;60912;48.968;10.124;2022-08-24T07:16:26;96972.53;;;28.77
71640;BMP280;60912;48.968;10.124;2022-08-24T07:18:52;96974.38;;;28.94
71640;BMP280;60912;48.968;10.124;2022-08-24T07:21:18;96982.16;;;28.42
71640;BMP280;60912;48.968;10.124;2022-08-24T07:23:43;96980.88;;;27.98
71640;BMP280;60912;48.968;10.124;2022-08-24T07:26:11;96970.44;;;27.38
71640;BMP280;60912;48.968;10.124;2022-08-24T07:28:37;96978.72;;;27.53
71640;BMP280;60912;48.968;10.124;2022-08-24T07:31:04;96979.19;;;27.67
71640;BMP280;60912;48.968;10.124;2022-08-24T07:33:30;96982.91;;;27.50
71640;BMP280;60912;48.968;10.124;2022-08-24T07:35:56;96975.13;;;27.51
71640;BMP280;60912;48.968;10.124;2022-08-24T07:38:21;96984.31;;;27.08
71640;BMP280;60912;48.968;10.124;2022-08-24T07:40:47;96978.06;;;26.52
71640;BMP280;60912;48.968;10.124;2022-08-24T07:43:12;96987.25;;;26.51
71640;BMP280;60912;48.968;10.124;2022-08-24T07:45:41;96980.94;;;26.15
71640;BMP280;60912;48.968;10.124;2022-08-24T07:48:07;96977.22;;;26.11
71640;BMP280;60912;48.968;10.124;2022-08-24T07:50:33;96985.25;;;26.55
71640;BMP280;60912;48.968;10.124;2022-08-24T07:52:58;96985.13;;;26.51
71640;BMP280;60912;48.968;10.124;2022-08-24T07:55:24;96983.00;;;26.32
71640;BMP280;60912;48.968;10.124;2022-08-24T07:57:49;96986.19;;;26.42
71640;BMP280;60912;48.968;10.124;2022-08-24T08:00:16;96982.16;;;26.47
71640;BMP280;60912;48.968;10.124;2022-08-24T08:02:44;96989.03;;;27.01
71640;BMP280;60912;48.968;10.124;2022-08-24T08:05:13;96992.06;;;27.49
71640;BMP280;60912;48.968;10.124;2022-08-24T08:07:38;97002.03;;;27.95
71640;BMP280;60912;48.968;10.124;2022-08-24T08:10:04;96998.78;;;28.05
71640;BMP280;60912;48.968;10.124;2022-08-24T08:12:30;97001.19;;;27.47
71640;BMP280;60912;48.968;10.124;2022-08-24T08:14:55;97006.66;;;27.63
71640;BMP280;60912;48.968;10.124;2022-08-24T08:17:22;96994.63;;;26.80
71640;BMP280;60912;48.968;10.124;2022-08-24T08:19:47;96997.63;;;26.84
71640;BMP280;60912;48.968;10.124;2022-08-24T08:22:12;97004.22;;;27.53
71640;BMP280;60912;48.968;10.124;2022-08-24T08:24:57;97005.69;;;27.13
71640;BMP280;60912;48.968;10.124;2022-08-24T08:27:22;96998.03;;;26.96
71640;BMP280;60912;48.968;10.124;2022-08-24T08:29:49;97003.91;;;27.02
71640;BMP280;60912;48.968;10.124;2022-08-24T08:32:15;96996.75;;;27.20
71640;BMP280;60912;48.968;10.124;2022-08-24T08:34:43;96995.31;;;27.19
71640;BMP280;60912;48.968;10.124;2022-08-24T08:37:09;96991.50;;;26.91
71640;BMP280;60912;48.968;10.124;2022-08-24T08:39:35;96986.91;;;27.02
71640;BMP280;60912;48.968;10.124;2022-08-24T08:42:26;96985.94;;;26.74
71640;BMP280;60912;48.968;10.124;2022-08-24T08:47:36;96992.16;;;26.90
71640;BMP280;60912;48.968;10.124;2022-08-24T08:50:18;96995.59;;;27.27
71640;BMP280;60912;48.968;10.124;2022-08-24T09:06:43;96983.44;;;27.90
71640;BMP280;60912;48.968;10.124;2022-08-24T09:12:07;96991.50;;;27.76
71640;BMP280;60912;48.968;10.124;2022-08-24T09:26:02;96973.47;;;29.13
71640;BMP280;60912;48.968;10.124;2022-08-24T09:28:43;96981.84;;;28.56
71640;BMP280;60912;48.968;10.124;2022-08-24T10:04:13;96972.59;;;28.06
71640;BMP280;60912;48.968;10.124;2022-08-24T10:07:25;96976.22;;;28.09
71640;BMP280;60912;48.968;10.124;2022-08-24T10:12:55;96976.06;;;28.78
71640;BMP280;60912;48.968;10.124;2022-08-24T10:15:29;96961.78;;;29.01
71640;BMP280;60912;48.968;10.124;2022-08-24T10:20:45;96955.84;;;29.19
71640;BMP280;60912;48.968;10.124;2022-08-24T10:23:49;96957.28;;;28.92
71640;BMP280;60912;48.968;10.124;2022-08-24T10:26:49;96955.66;;;29.39
71640;BMP280;60912;48.968;10.124;2022-08-24T10:29:36;96959.72;;;29.31
71640;BMP280;60912;48.968;10.124;2022-08-24T10:37:31;96944.75;;;29.01
71640;BMP280;60912;48.968;10.124;2022-08-24T10:43:38;96948.22;;;29.87
71640;BMP280;60912;48.968;10.124;2022-08-24T10:53:49;96950.41;;;28.99
71640;BMP280;60912;48.968;10.124;2022-08-24T10:56:17;96938.09;;;29.48
71640;BMP280;60912;48.968;10.124;2022-08-24T11:06:22;96922.06;;;29.61
71640;BMP280;60912;48.968;10.124;2022-08-24T11:08:55;96929.34;;;29.68
71640;BMP280;60912;48.968;10.124;2022-08-24T11:11:25;96928.69;;;29.40
71640;BMP280;60912;48.968;10.124;2022-08-24T11:14:01;96929.59;;;29.18
71640;BMP280;60912;48.968;10.124;2022-08-24T11:16:32;96933.41;;;29.01
71640;BMP280;60912;48.968;10.124;2022-08-24T11:19:00;96937.25;;;29.12
71640;BMP280;60912;48.968;10.124;2022-08-24T11:21:41;96940.72;;;29.38
71640;BMP280;60912;48.968;10.124;2022-08-24T11:29:17;96927.72;;;30.26
71640;BMP280;60912;48.968;10.124;2022-08-24T11:31:47;96936.50;;;30.38
71640;BMP280;60912;48.968;10.124;2022-08-24T11:34:36;96918.63;;;30.71
71640;BMP280;60912;48.968;10.124;2022-08-24T11:37:03;96924.47;;;30.42
71640;BMP280;60912;48.968;10.124;2022-08-24T11:39:36;96916.56;;;30.76
71640;BMP280;60912;48.968;10.124;2022-08-24T11:42:33;96918.66;;;30.73
71640;BMP280;60912;48.968;10.124;2022-08-24T11:45:02;96924.53;;;30.46
71640;BMP280;60912;48.968;10.124;2022-08-24T11:47:34;96923.31;;;30.19
71640;BMP280;60912;48.968;10.124;2022-08-24T11:58:04;96921.41;;;30.32
71640;BMP280;60912;48.968;10.124;2022-08-24T12:09:15;96912.25;;;30.35
71640;BMP280;60912;48.968;10.124;2022-08-24T12:11:51;96917.06;;;30.27
71640;BMP280;60912;48.968;10.124;2022-08-24T12:19:43;96912.34;;;30.05
71640;BMP280;60912;48.968;10.124;2022-08-24T12:22:12;96914.31;;;29.97
71640;BMP280;60912;48.968;10.124;2022-08-24T12:24:46;96917.00;;;29.89
71640;BMP280;60912;48.968;10.124;2022-08-24T12:30:02;96916.63;;;30.40
71640;BMP280;60912;48.968;10.124;2022-08-24T12:32:30;96909.53;;;29.72
71640;BMP280;60912;48.968;10.124;2022-08-24T12:35:21;96909.69;;;29.80
71640;BMP280;60912;48.968;10.124;2022-08-24T12:43:14;96907.19;;;30.69
71640;BMP280;60912;48.968;10.124;2022-08-24T12:45:41;96904.75;;;30.92
71640;BMP280;60912;48.968;10.124;2022-08-24T12:48:14;96901.22;;;30.53
71640;BMP280;60912;48.968;10.124;2022-08-24T12:59:04;96890.91;;;31.18
71640;BMP280;60912;48.968;10.124;2022-08-24T13:01:38;96892.50;;;30.83
71640;BMP280;60912;48.968;10.124;2022-08-24T13:06:54;96886.97;;;30.91
71640;BMP280;60912;48.968;10.124;2022-08-24T13:26:25;96884.03;;;30.10
71640;BMP280;60912;48.968;10.124;2022-08-24T13:28:31;96882.47;;;29.69
71640;BMP280;60912;48.968;10.124;2022-08-24T13:31:25;96879.75;;;29.11
71640;BMP280;60912;48.968;10.124;2022-08-24T13:56:25;96880.38;;;28.52
71640;BMP280;60912;48.968;10.124;2022-08-24T13:59:10;96878.63;;;28.67
71640;BMP280;60912;48.968;10.124;2022-08-24T14:02:02;96878.47;;;28.61
71640;BMP280;60912;48.968;10.124;2022-08-24T14:07:55;96876.81;;;28.52
71640;BMP280;60912;48.968;10.124;2022-08-24T14:15:52;96869.31;;;29.52
71640;BMP280;60912;48.968;10.124;2022-08-24T14:21:17;96871.25;;;28.56
71640;BMP280;60912;48.968;10.124;2022-08-24T14:24:30;96866.13;;;28.78
71640;BMP280;60912;48.968;10.124;2022-08-24T14:29:38;96864.72;;;29.37
71640;BMP280;60912;48.968;10.124;2022-08-24T14:37:22;96860.47;;;29.38
71640;BMP280;60912;48.968;10.124;2022-08-24T14:39:58;96858.75;;;29.24
71640;BMP280;60912;48.968;10.124;2022-08-24T14:42:46;96867.06;;;29.16
71640;BMP280;60912;48.968;10.124;2022-08-24T14:50:48;96864.47;;;28.41
71640;BMP280;60912;48.968;10.124;2022-08-24T14:59:12;96853.44;;;28.26
71640;BMP280;60912;48.968;10.124;2022-08-24T15:01:49;96851.19;;;28.48
71640;BMP280;60912;48.968;10.124;2022-08-24T15:04:47;96840.06;;;28.56
71640;BMP280;60912;48.968;10.124;2022-08-24T15:07:31;96840.75;;;28.84
71640;BMP280;60912;48.968;10.124;2022-08-24T15:10:00;96845.88;;;28.90
71640;BMP280;60912;48.968;10.124;2022-08-24T15:26:03;96831.47;;;28.82
71640;BMP280;60912;48.968;10.124;2022-08-24T15:28:33;96835.03;;;28.82
71640;BMP280;60912;48.968;10.124;2022-08-24T15:31:03;96836.06;;;28.65
71640;BMP280;60912;48.968;10.124;2022-08-24T15:33:32;96833.09;;;28.61
71640;BMP280;60912;48.968;10.124;2022-08-24T15:36:16;96834.06;;;28.44
71640;BMP280;60912;48.968;10.124;2022-08-24T15:38:42;96826.47;;;28.50
71640;BMP280;60912;48.968;10.124;2022-08-24T15:43:56;96821.97;;;28.99
71640;BMP280;60912;48.968;10.124;2022-08-24T15:49:05;96819.47;;;29.13
71640;BMP280;60912;48.968;10.124;2022-08-24T15:54:14;96829.75;;;28.98
71640;BMP280;60912;48.968;10.124;2022-08-24T15:56:49;96824.28;;;29.06
71640;BMP280;60912;48.968;10.124;2022-08-24T16:08:09;96836.09;;;28.39
71640;BMP280;60912;48.968;10.124;2022-08-24T16:10:55;96839.44;;;28.32
71640;BMP280;60912;48.968;10.124;2022-08-24T16:13:29;96839.28;;;28.28
71640;BMP280;60912;48.968;10.124;2022-08-24T16:18:59;96839.34;;;28.02
71640;BMP280;60912;48.968;10.124;2022-08-24T16:34:41;96829.19;;;28.21
71640;BMP280;60912;48.968;10.124;2022-08-24T16:37:07;96839.44;;;28.32
71640;BMP280;60912;48.968;10.124;2022-08-24T16:39:32;96832.28;;;28.31
71640;BMP280;60912;48.968;10.124;2022-08-24T16:42:02;96835.09;;;28.29
71640;BMP280;60912;48.968;10.124;2022-08-24T16:44:32;96846.69;;;27.87
71640;BMP280;60912;48.968;10.124;2022-08-24T16:46:59;96837.22;;;27.79
71640;BMP280;60912;48.968;10.124;2022-08-24T16:49:24;96839.66;;;27.65
71640;BMP280;60912;48.968;10.124;2022-08-24T16:51:50;96848.56;;;27.55
71640;BMP280;60912;48.968;10.124;2022-08-24T16:54:15;96851.22;;;27.49
71640;BMP280;60912;48.968;10.124;2022-08-24T16:56:40;96849.72;;;27.46
71640;BMP280;60912;48.968;10.124;2022-08-24T16:59:14;96852.19;;;27.34
71640;BMP280;60912;48.968;10.124;2022-08-24T17:01:41;96852.19;;;27.34
71640;BMP280;60912;48.968;10.124;2022-08-24T17:04:06;96850.19;;;27.17
71640;BMP280;60912;48.968;10.124;2022-08-24T17:06:32;96850.19;;;27.17
71640;BMP280;60912;48.968;10.124;2022-08-24T17:09:00;96845.88;;;27.14
71640;BMP280;60912;48.968;10.124;2022-08-24T17:11:32;96850.66;;;27.09
71640;BMP280;60912;48.968;10.124;2022-08-24T17:13:59;96855.63;;;27.09
71640;BMP280;60912;48.968;10.124;2022-08-24T17:16:25;96856.94;;;27.06
71640;BMP280;60912;48.968;10.124;2022-08-24T17:18:50;96859.22;;;27.11
71640;BMP280;60912;48.968;10.124;2022-08-24T17:21:16;96859.97;;;27.12
71640;BMP280;60912;48.968;10.124;2022-08-24T17:23:42;96861.13;;;27.05
71640;BMP280;60912;48.968;10.124;2022-08-24T17:26:10;96862.31;;;26.98
71640;BMP280;60912;48.968;10.124;2022-08-24T17:28:41;96862.09;;;26.92
71640;BMP280;60912;48.968;10.124;2022-08-24T17:31:08;96859.72;;;26.84
71640;BMP280;60912;48.968;10.124;2022-08-24T17:33:35;96856.38;;;26.90
71640;BMP280;60912;48.968;10.124;2022-08-24T17:36:00;96854.91;;;26.87
71640;BMP280;60912;48.968;10.124;2022-08-24T17:38:27;96856.13;;;26.82
71640;BMP280;60912;48.968;10.124;2022-08-24T17:40:54;96859.59;;;26.80
71640;BMP280;60912;48.968;10.124;2022-08-24T17:43:19;96857.28;;;26.75
71640;BMP280;60912;48.968;10.124;2022-08-24T17:45:45;96867.03;;;26.69
71640;BMP280;60912;48.968;10.124;2022-08-24T17:48:16;96862.38;;;26.58
71640;BMP280;60912;48.968;10.124;2022-08-24T17:50:44;96867.19;;;26.54
71640;BMP280;60912;48.968;10.124;2022-08-24T17:53:10;96867.94;;;26.35
71640;BMP280;60912;48.968;10.124;2022-08-24T17:55:35;96866.69;;;26.20
71640;BMP280;60912;48.968;10.124;2022-08-24T17:58:01;96867.47;;;26.03
71640;BMP280;60912;48.968;10.124;2022-08-24T18:00:27;96865.28;;;26.01
71640;BMP280;60912;48.968;10.124;2022-08-24T18:02:53;96864.88;;;26.09
71640;BMP280;60912;48.968;10.124;2022-08-24T18:05:18;96868.50;;;26.12
71640;BMP280;60912;48.968;10.124;2022-08-24T18:07:50;96868.78;;;26.00
71640;BMP280;60912;48.968;10.124;2022-08-24T18:10:18;96873.09;;;26.03
71640;BMP280;60912;48.968;10.124;2022-08-24T18:12:44;96871.53;;;25.98
71640;BMP280;60912;48.968;10.124;2022-08-24T18:15:10;96873.47;;;25.93
71640;BMP280;60912;48.968;10.124;2022-08-24T18:17:44;96874.38;;;25.80
71640;BMP280;60912;48.968;10.124;2022-08-24T18:20:12;96876.91;;;25.72
71640;BMP280;60912;48.968;10.124;2022-08-24T18:22:38;96870.53;;;25.72
71640;BMP280;60912;48.968;10.124;2022-08-24T18:25:10;96875.94;;;25.66
71640;BMP280;60912;48.968;10.124;2022-08-24T18:27:35;96875.22;;;25.65
71640;BMP280;60912;48.968;10.124;2022-08-24T18:30:04;96877.91;;;25.61